Terminal Aerodrome Forecast
Issued by NWS

Home | Current Version | Previous Version | Text Only | Print | Product List | Glossary On
Versions: 1 2 3 4 5 6 7 8 9 10 11 12 13 14 15 16 17 18
000
FTUS43 KICT 280531
TAFRSL
TAF
KRSL 280531Z 2806/0106 16010KT P6SM OVC015
     FM281500 16012KT 1SM -SN OVC015
     FM282000 17013KT P6SM OVC025=

USA.gov is the U.S. government's official web portal to all federal, state and local government web resources and services.